createdAt,value
2022-11-23T00:02:57.377Z,21.92
2022-11-23T00:07:59.515Z,21.10
2022-11-23T00:13:01.794Z,23.67
2022-11-23T00:18:04.083Z,17.17
2022-11-23T00:23:06.094Z,17.98
2022-11-23T00:28:08.172Z,15.57
2022-11-23T00:33:10.192Z,16.38
2022-11-23T00:38:12.468Z,15.38
2022-11-23T00:43:14.478Z,17.35
2022-11-23T00:48:16.612Z,22.20
2022-11-23T00:53:18.595Z,15.23
2022-11-23T00:58:21.178Z,12.68
2022-11-23T01:03:23.245Z,20.40
2022-11-23T01:08:26.762Z,19.85
2022-11-23T01:13:29.740Z,25.83
2022-11-23T01:18:31.719Z,17.35
2022-11-23T01:23:33.813Z,17.13
2022-11-23T01:28:38.043Z,15.52
2022-11-23T01:33:40.552Z,14.23
2022-11-23T01:38:43.401Z,17.38
2022-11-23T01:43:45.798Z,19.60
2022-11-23T01:49:07.673Z,11.05
2022-11-23T01:54:13.440Z,12.05
2022-11-23T01:59:19.116Z,18.05
2022-11-23T02:04:27.099Z,17.38
2022-11-23T02:09:32.355Z,17.80
2022-11-23T02:14:34.677Z,15.57
2022-11-23T02:20:15.443Z,12.35
2022-11-23T02:25:42.370Z,16.83
2022-11-23T02:30:47.287Z,15.38
2022-11-23T02:35:50.698Z,18.00
2022-11-23T02:40:52.888Z,17.42
2022-11-23T02:46:03.478Z,19.55
2022-11-23T02:51:06.587Z,16.30
2022-11-23T02:56:08.583Z,13.52
2022-11-23T03:01:10.817Z,19.20
2022-11-23T03:06:13.122Z,21.65
2022-11-23T03:11:15.267Z,14.45
2022-11-23T03:16:17.395Z,11.52
2022-11-23T03:21:22.545Z,14.77
2022-11-23T03:26:24.779Z,15.15
2022-11-23T03:31:37.589Z,10.13
2022-11-23T03:36:42.823Z,13.88
2022-11-23T03:41:45.147Z,16.00
2022-11-23T03:46:47.371Z,12.10
2022-11-23T03:51:49.595Z,17.42
2022-11-23T03:56:51.682Z,16.27
2022-11-23T04:01:54.078Z,12.98
2022-11-23T04:07:00.962Z,15.32
2022-11-23T04:12:09.780Z,17.38
2022-11-23T04:17:13.707Z,16.33
2022-11-23T04:22:15.891Z,11.40
2022-11-23T04:27:18.187Z,12.85
2022-11-23T04:32:20.259Z,16.48
2022-11-23T04:37:23.357Z,13.52
2022-11-23T04:42:25.515Z,16.73
2022-11-23T04:47:32.364Z,10.80
2022-11-23T04:52:38.545Z,14.40
2022-11-23T04:57:48.744Z,15.13
2022-11-23T05:02:50.918Z,9.07
2022-11-23T05:07:57.419Z,16.88
2022-11-23T05:13:06.431Z,12.23
2022-11-23T05:18:10.466Z,25.10
2022-11-23T05:23:14.441Z,17.42
2022-11-23T05:33:47.429Z,13.93
2022-11-23T05:38:52.649Z,18.52
2022-11-23T05:44:01.897Z,15.95
2022-11-23T05:49:05.673Z,13.65
2022-11-23T05:54:11.778Z,12.65
2022-11-23T05:59:17.978Z,16.60
2022-11-23T06:04:25.907Z,14.07
2022-11-23T06:09:28.865Z,13.75
2022-11-23T06:14:37.467Z,16.30
2022-11-23T06:19:39.796Z,14.13
2022-11-23T06:24:42.360Z,18.52
2022-11-23T06:30:11.734Z,24.08
2022-11-23T06:35:14.074Z,19.70
2022-11-23T06:40:18.020Z,17.67
2022-11-23T06:45:20.364Z,16.15
2022-11-23T06:50:25.810Z,17.13
2022-11-23T06:55:27.975Z,15.68
2022-11-23T07:00:30.467Z,10.27
2022-11-23T07:05:32.654Z,19.38
2022-11-23T07:10:35.453Z,14.07
2022-11-23T07:15:39.330Z,21.90
2022-11-23T07:20:41.547Z,23.10
2022-11-23T07:25:43.857Z,17.85
2022-11-23T07:30:46.654Z,17.00
2022-11-23T07:35:50.238Z,14.98
2022-11-23T07:40:52.446Z,14.57
2022-11-23T07:46:14.255Z,18.08
2022-11-23T07:51:16.815Z,15.13
2022-11-23T07:56:18.885Z,15.20
2022-11-23T08:01:21.443Z,15.77
2022-11-23T08:06:23.747Z,13.32
2022-11-23T08:11:25.803Z,14.73
2022-11-23T08:16:27.919Z,18.38
2022-11-23T08:21:29.904Z,20.70
2022-11-23T08:26:32.017Z,16.48
2022-11-23T08:31:34.032Z,13.80
2022-11-23T08:36:37.231Z,18.38
2022-11-23T08:41:39.474Z,14.63
2022-11-23T08:46:41.666Z,19.05
2022-11-23T08:51:49.703Z,14.70
2022-11-23T08:56:52.325Z,16.85
2022-11-23T09:01:54.541Z,18.65
2022-11-23T09:06:57.028Z,16.67
2022-11-23T09:11:59.231Z,20.33
2022-11-23T09:17:02.155Z,16.48
2022-11-23T09:22:04.358Z,15.57
2022-11-23T09:27:06.514Z,15.90
2022-11-23T09:32:08.490Z,13.13
2022-11-23T09:37:10.742Z,14.57
2022-11-23T09:42:39.976Z,16.45
2022-11-23T09:48:03.206Z,16.52
2022-11-23T09:53:12.265Z,11.95
2022-11-23T09:58:21.487Z,15.18
2022-11-23T10:03:23.498Z,15.57
2022-11-23T10:08:52.431Z,13.68
2022-11-23T10:14:06.302Z,13.13
2022-11-23T10:19:22.552Z,12.15
2022-11-23T10:24:32.712Z,15.10
2022-11-23T10:29:37.035Z,19.47
2022-11-23T10:34:57.141Z,11.07
2022-11-23T10:39:59.253Z,14.70
2022-11-23T10:45:01.774Z,8.20
2022-11-23T10:50:18.082Z,8.48
2022-11-23T10:55:25.481Z,13.35
2022-11-23T11:00:31.206Z,9.40
2022-11-23T11:11:21.024Z,6.40
2022-11-23T11:16:47.941Z,8.15
2022-11-23T11:21:50.154Z,8.75
2022-11-23T11:26:57.775Z,11.27
2022-11-23T11:32:09.120Z,6.68
2022-11-23T11:37:33.533Z,10.63
2022-11-23T11:43:10.460Z,7.10
2022-11-23T11:48:28.372Z,9.50
2022-11-23T11:53:49.433Z,7.82
2022-11-23T11:58:57.135Z,6.60
2022-11-23T12:04:07.049Z,7.72
2022-11-23T12:09:16.626Z,4.37
2022-11-23T12:14:18.811Z,7.70
2022-11-23T12:19:24.105Z,8.27
2022-11-23T12:24:44.522Z,7.35
2022-11-23T12:30:10.754Z,7.97
2022-11-23T12:35:25.007Z,6.45
2022-11-23T12:40:55.560Z,7.30
2022-11-23T12:46:13.580Z,11.10
2022-11-23T12:51:36.155Z,7.93
2022-11-23T12:56:46.195Z,7.13
2022-11-23T13:01:56.325Z,8.02
2022-11-23T13:07:44.648Z,8.95
2022-11-23T13:13:22.249Z,6.55
2022-11-23T13:18:42.548Z,11.07
2022-11-23T13:23:44.791Z,9.10
2022-11-23T13:28:49.116Z,7.90
2022-11-23T13:33:56.941Z,5.53
2022-11-23T13:39:02.486Z,7.75
2022-11-23T13:44:26.431Z,6.82
2022-11-23T13:49:46.226Z,8.23
2022-11-23T13:55:13.093Z,6.63
2022-11-23T14:00:53.767Z,9.27
2022-11-23T14:06:01.189Z,7.97
2022-11-23T14:11:12.251Z,7.32
2022-11-23T14:21:39.916Z,6.55
2022-11-23T14:32:47.601Z,6.90
2022-11-23T14:38:12.574Z,14.57
2022-11-23T14:43:22.338Z,9.35
2022-11-23T14:48:32.526Z,8.85
2022-11-23T14:53:46.988Z,8.70
2022-11-23T14:58:50.340Z,8.55
2022-11-23T15:03:57.635Z,6.80
2022-11-23T15:09:14.909Z,7.28
2022-11-23T15:14:25.938Z,12.07
2022-11-23T15:24:31.511Z,5.95
2022-11-23T15:29:37.026Z,7.78
2022-11-23T15:34:39.465Z,9.50
2022-11-23T15:39:42.039Z,7.65
2022-11-23T15:44:49.049Z,9.35
2022-11-23T15:50:01.240Z,8.80
2022-11-23T15:55:12.685Z,9.15
2022-11-23T16:00:25.874Z,5.43
2022-11-23T16:05:27.914Z,9.00
2022-11-23T16:10:37.440Z,8.48
2022-11-23T16:15:41.518Z,5.90
2022-11-23T16:20:45.172Z,7.00
2022-11-23T16:25:55.177Z,6.88
2022-11-23T16:30:58.075Z,8.93
2022-11-23T16:36:00.214Z,7.40
2022-11-23T16:41:02.214Z,9.80
2022-11-23T16:46:04.460Z,9.90
2022-11-23T16:51:07.423Z,12.40
2022-11-23T16:56:13.332Z,7.30
2022-11-23T17:01:21.888Z,11.35
2022-11-23T17:06:23.956Z,10.85
2022-11-23T17:11:26.435Z,27.45
2022-11-23T17:16:30.051Z,10.13
2022-11-23T17:21:32.134Z,12.07
2022-11-23T17:26:37.691Z,17.00
2022-11-23T17:31:40.396Z,18.92
2022-11-23T17:36:43.826Z,15.38
2022-11-23T17:41:45.955Z,8.98
2022-11-23T17:46:52.192Z,18.60
2022-11-23T17:51:55.533Z,12.23
2022-11-23T17:56:57.788Z,12.82
2022-11-23T18:01:59.961Z,11.45
2022-11-23T18:07:02.861Z,12.43
2022-11-23T18:12:05.151Z,16.38
2022-11-23T18:17:07.294Z,13.85
2022-11-23T18:22:09.457Z,18.33
2022-11-23T18:27:13.441Z,11.93
2022-11-23T18:32:15.538Z,12.60
2022-11-23T18:37:17.675Z,10.75
2022-11-23T18:42:21.376Z,17.95
2022-11-23T18:47:24.086Z,17.75
2022-11-23T18:52:26.456Z,13.32
2022-11-23T18:57:28.539Z,14.07
2022-11-23T19:02:30.819Z,19.55
2022-11-23T19:07:32.998Z,17.98
2022-11-23T19:12:34.991Z,18.98
2022-11-23T19:17:37.313Z,17.45
2022-11-23T19:22:39.343Z,18.75
2022-11-23T19:27:41.414Z,20.38
2022-11-23T19:32:43.618Z,15.52
2022-11-23T19:37:45.930Z,23.17
2022-11-23T19:42:47.995Z,20.23
2022-11-23T19:47:50.010Z,24.00
2022-11-23T19:53:12.181Z,35.83
2022-11-23T19:58:15.278Z,22.80
2022-11-23T20:03:17.448Z,28.23
2022-11-23T20:08:19.429Z,31.83
2022-11-23T20:13:22.135Z,33.78
2022-11-23T20:18:29.463Z,24.70
2022-11-23T20:23:31.849Z,44.58
2022-11-23T20:28:34.314Z,24.65
2022-11-23T20:33:36.900Z,29.13
2022-11-23T20:38:39.202Z,23.92
2022-11-23T20:43:42.070Z,26.15
2022-11-23T20:48:46.215Z,34.95
2022-11-23T20:53:49.947Z,33.55
2022-11-23T20:58:56.956Z,22.60
2022-11-23T21:03:59.559Z,26.05
2022-11-23T21:09:01.628Z,28.38
2022-11-23T21:14:12.510Z,25.40
2022-11-23T21:19:21.061Z,31.75
2022-11-23T21:24:23.787Z,26.00
2022-11-23T21:29:26.728Z,24.20
2022-11-23T21:34:29.733Z,26.10
2022-11-23T21:39:31.888Z,20.50
2022-11-23T21:44:34.174Z,29.48
2022-11-23T21:49:36.353Z,26.17
2022-11-23T21:54:38.406Z,26.75
2022-11-23T21:59:40.419Z,33.85
2022-11-23T22:04:42.497Z,28.85
2022-11-23T22:09:44.691Z,24.48
2022-11-23T22:14:47.193Z,29.63
2022-11-23T22:19:49.352Z,29.65
2022-11-23T22:24:51.412Z,33.60
2022-11-23T22:29:53.438Z,31.83
2022-11-23T22:34:55.504Z,27.08
2022-11-23T22:39:57.557Z,24.95
2022-11-23T22:44:59.583Z,27.60
2022-11-23T22:50:01.678Z,24.27
2022-11-23T22:55:04.690Z,26.50
2022-11-23T23:00:10.755Z,21.77
2022-11-23T23:05:12.824Z,24.35
2022-11-23T23:10:15.039Z,33.78
2022-11-23T23:15:17.135Z,26.23
2022-11-23T23:20:19.166Z,24.27
2022-11-23T23:25:21.234Z,25.95
2022-11-23T23:30:24.260Z,21.95
2022-11-23T23:35:26.336Z,23.30
2022-11-23T23:40:28.363Z,29.95
2022-11-23T23:45:30.425Z,16.42
2022-11-23T23:50:32.553Z,32.08
2022-11-23T23:55:34.697Z,19.73
